logo
Search for airport 
image banner adimage banner adimage banner ad
image banner ad

OEDF - Dammam / King Fahd International

Located in Dammam, Saudi Arabia

ICAO - OEDF, IATA - DMM

Data provided by Airmate  

General information

Coordinates: N26°28'16" E49°47'52"
Elevation is 75 feet MSL.
 
View others Airports in Ash Sharqiyah

Operational data

Special qualification required
Current time UTC:
Current local time:
Weather
METAR: OEDF 282000Z 30007KT CAVOK 32/02 Q1004 NOSIG
TAF: TAF OEDF 281600Z 2818/2924 32008KT CAVOK BECMG 2904/2906 35012G24KT BECMG 2918/2920 30006KT
View NOTAMs / SUP AIP / TFR affecting this airport [VIEW]
Communications frequencies: [VIEW]

Runways:

RWY identifierQFULength (ft)Width (ft)SurfaceLDA (ft)
16R164°13123197ASP
34L344°13123197ASP
16L164°13123197ASP
34R344°13123197ASP

Airport contact information

Address: Dammam Saudi Arabia

Satellite view of OEDF